Time;durP1;ratioP1;P1;durP2;ratioP2;P2;SDS_P1;SDS_P2;PMS_P1;PMS_P2;Temp;Humidity;BMP_temperature;BMP_pressure;BME280_temperature;BME280_humidity;BME280_pressure;Samples;Min_cycle;Max_cycle;Signal;HPM_P1;HPM_P2
2024/04/13 00:01:21;;;;;;;2.50;2.30;;;;;;;20.06;55.01;98715.38;5427130;26;20230;-28
2024/04/13 00:03:51;;;;;;;1.90;1.73;;;;;;;20.06;54.81;98715.38;5420911;26;20241;-25
2024/04/13 00:06:18;;;;;;;1.83;1.70;;;;;;;20.07;54.52;98718.81;5425759;26;20323;-24
2024/04/13 00:08:45;;;;;;;2.47;2.20;;;;;;;20.07;54.49;98713.69;5430371;26;20243;-27
2024/04/13 00:11:11;;;;;;;2.00;1.90;;;;;;;20.07;54.93;98709.47;5436129;26;20283;-30
2024/04/13 00:13:38;;;;;;;2.30;2.10;;;;;;;20.03;54.42;98702.44;5436686;26;20281;-27
2024/04/13 00:16:05;;;;;;;2.20;2.00;;;;;;;20.08;54.34;98707.78;5417959;26;20235;-27
2024/04/13 00:18:34;;;;;;;2.07;1.97;;;;;;;20.04;54.81;98706.75;5432997;26;20222;-25
2024/04/13 00:21:02;;;;;;;2.30;2.00;;;;;;;20.04;54.86;98711.00;5431891;26;20830;-27
2024/04/13 00:23:30;;;;;;;2.20;2.00;;;;;;;20.04;54.34;98711.00;5423517;26;20355;-25
2024/04/13 00:25:57;;;;;;;2.37;2.17;;;;;;;20.04;54.48;98711.84;5428559;26;20241;-26
2024/04/13 00:28:23;;;;;;;2.37;2.00;;;;;;;20.02;54.68;98706.66;5417052;26;20333;-26
2024/04/13 00:30:50;;;;;;;2.20;2.07;;;;;;;20.02;54.47;98707.47;5416277;26;20284;-29
2024/04/13 00:33:18;;;;;;;2.23;2.03;;;;;;;20.04;54.36;98711.84;5430610;26;20242;-25
2024/04/13 00:35:45;;;;;;;2.23;2.03;;;;;;;20.04;54.57;98705.88;5431258;26;20664;-25
2024/04/13 00:38:12;;;;;;;2.23;2.00;;;;;;;20.06;54.76;98704.28;5437947;26;20245;-26
2024/04/13 00:40:39;;;;;;;2.00;1.90;;;;;;;20.05;54.94;98712.72;5429200;26;20234;-30
2024/04/13 00:43:06;;;;;;;1.93;1.80;;;;;;;20.04;54.40;98716.09;5437610;26;20289;-27
2024/04/13 00:45:42;;;;;;;2.20;1.90;;;;;;;20.02;54.44;98708.34;5421294;26;20235;-29
2024/04/13 00:48:16;;;;;;;2.20;2.00;;;;;;;20.02;54.34;98710.91;5407499;26;20241;-27
2024/04/13 00:50:47;;;;;;;2.00;1.90;;;;;;;20.02;54.90;98703.25;5422497;26;20335;-31
2024/04/13 00:53:16;;;;;;;1.93;1.83;;;;;;;20.02;54.52;98711.75;5419168;26;20234;-27
2024/04/13 00:55:43;;;;;;;2.30;2.10;;;;;;;19.99;55.20;98706.50;5438479;26;20234;-25
2024/04/13 00:58:13;;;;;;;1.87;1.77;;;;;;;20.04;54.43;98701.63;5426955;26;20226;-27
2024/04/13 01:00:40;;;;;;;2.10;1.90;;;;;;;20.04;54.52;98704.19;5431508;26;20587;-29
2024/04/13 01:03:08;;;;;;;2.00;1.90;;;;;;;20.04;54.78;98705.88;5444438;26;20246;-33
2024/04/13 01:05:35;;;;;;;2.33;2.13;;;;;;;20.01;55.04;98696.38;5420434;26;20239;-27
2024/04/13 01:08:04;;;;;;;1.80;1.70;;;;;;;20.04;54.74;98699.09;5444658;26;20327;-28
2024/04/13 01:10:31;;;;;;;1.90;1.80;;;;;;;20.07;54.31;98691.59;5429595;26;20265;-26
2024/04/13 01:12:57;;;;;;;2.10;2.00;;;;;;;20.10;54.36;98696.00;5423994;26;20808;-27
2024/04/13 01:15:27;;;;;;;1.90;1.80;;;;;;;20.11;54.75;98693.53;5429783;26;20269;-33
2024/04/13 01:17:54;;;;;;;2.40;2.10;;;;;;;20.13;54.47;98691.94;5427531;26;20269;-28
2024/04/13 01:20:21;;;;;;;2.20;2.00;;;;;;;20.11;54.30;98696.09;5437425;26;20333;-27
2024/04/13 01:22:48;;;;;;;1.90;1.80;;;;;;;20.12;54.85;98699.50;5439231;26;20334;-27
2024/04/13 01:25:15;;;;;;;2.67;2.20;;;;;;;20.10;54.46;98689.19;5404169;26;20235;-29
2024/04/13 01:27:41;;;;;;;1.93;1.83;;;;;;;20.12;55.20;98692.72;5435197;26;20226;-27
2024/04/13 01:30:09;;;;;;;2.03;1.93;;;;;;;20.10;54.96;98696.84;5440517;26;20225;-28
2024/04/13 01:32:36;;;;;;;2.27;2.07;;;;;;;20.13;54.34;98698.75;5444860;26;20229;-26
2024/04/13 01:35:09;;;;;;;2.10;2.00;;;;;;;20.13;54.92;98693.66;5433034;26;20239;-26
2024/04/13 01:37:39;;;;;;;1.80;1.70;;;;;;;20.13;54.50;98688.53;5428482;26;20229;-26
2024/04/13 01:40:07;;;;;;;2.47;2.20;;;;;;;20.11;54.79;98687.53;5430948;26;20230;-26
2024/04/13 01:42:35;;;;;;;1.83;1.73;;;;;;;20.14;54.75;98690.28;5424967;26;20293;-27
2024/04/13 01:45:01;;;;;;;2.20;2.00;;;;;;;20.08;54.82;98679.72;5420049;26;20776;-27
2024/04/13 01:47:28;;;;;;;2.00;1.90;;;;;;;20.13;54.55;98689.41;5435152;26;20235;-28
2024/04/13 01:49:55;;;;;;;2.43;2.23;;;;;;;20.11;54.71;98687.53;5433923;26;20222;-26
2024/04/13 01:52:22;;;;;;;2.27;2.07;;;;;;;20.12;54.41;98692.72;5443783;26;20269;-28
2024/04/13 01:54:49;;;;;;;2.30;2.10;;;;;;;20.14;54.73;98692.84;5428846;26;20276;-26
2024/04/13 01:57:15;;;;;;;2.17;1.97;;;;;;;20.12;54.60;98686.72;5431150;26;20234;-27
2024/04/13 01:59:42;;;;;;;2.13;1.97;;;;;;;20.12;54.71;98691.84;5424619;26;20269;-28
2024/04/13 02:02:12;;;;;;;2.00;1.90;;;;;;;20.14;54.83;98692.84;5428448;26;20604;-25
2024/04/13 02:04:39;;;;;;;1.90;1.80;;;;;;;20.14;54.36;98692.84;5436963;26;20286;-26
2024/04/13 02:07:06;;;;;;;2.33;2.13;;;;;;;20.15;54.44;98694.59;5434076;26;20235;-26
2024/04/13 02:09:33;;;;;;;1.97;1.80;;;;;;;20.15;54.87;98698.03;5434321;26;20234;-31
2024/04/13 02:12:00;;;;;;;3.27;2.00;;;;;;;20.15;54.81;98697.13;5428408;26;20273;-27
2024/04/13 02:14:27;;;;;;;2.30;2.10;;;;;;;20.15;54.22;98694.59;5430969;26;20581;-26
2024/04/13 02:16:54;;;;;;;2.13;1.97;;;;;;;20.12;54.51;98697.84;5425996;26;20298;-26
2024/04/13 02:19:20;;;;;;;2.20;2.00;;;;;;;20.14;54.71;98703.94;5431760;26;20225;-26
2024/04/13 02:21:47;;;;;;;2.10;2.00;;;;;;;20.14;54.65;98700.50;5446029;26;20773;-27
2024/04/13 02:24:14;;;;;;;2.33;2.20;;;;;;;20.14;54.75;98706.50;5431030;26;20238;-27
2024/04/13 02:26:41;;;;;;;1.97;1.87;;;;;;;20.15;54.67;98704.78;5425101;26;20722;-27
2024/04/13 02:29:07;;;;;;;2.13;1.97;;;;;;;20.15;54.38;98705.69;5433974;26;20741;-30
2024/04/13 02:31:34;;;;;;;2.10;2.00;;;;;;;20.14;54.29;98705.59;5433599;26;20230;-27
2024/04/13 02:34:01;;;;;;;1.90;1.80;;;;;;;20.14;54.82;98711.59;5431712;26;20230;-26
2024/04/13 02:36:28;;;;;;;2.50;2.30;;;;;;;20.15;54.29;98721.00;5432131;26;20276;-28
2024/04/13 02:38:54;;;;;;;2.47;2.20;;;;;;;20.17;54.73;98713.41;5426154;26;20242;-27
2024/04/13 02:41:21;;;;;;;2.10;1.90;;;;;;;20.17;54.67;98715.97;5432060;26;20230;-26
2024/04/13 02:43:50;;;;;;;2.20;2.00;;;;;;;20.14;54.36;98716.69;5424415;26;20302;-27
2024/04/13 02:46:17;;;;;;;2.37;2.17;;;;;;;20.15;54.17;98713.34;5429235;26;20227;-26
2024/04/13 02:48:47;;;;;;;2.17;2.03;;;;;;;20.17;54.71;98723.63;5445062;26;20330;-30
2024/04/13 02:51:15;;;;;;;2.40;2.20;;;;;;;20.15;54.22;98722.66;5428788;26;20273;-27
2024/04/13 02:53:42;;;;;;;2.13;2.03;;;;;;;20.16;54.43;98724.44;5421782;26;20242;-25
2024/04/13 02:56:10;;;;;;;2.40;2.20;;;;;;;20.16;54.48;98724.44;5430260;26;20234;-27
2024/04/13 02:58:37;;;;;;;2.10;2.00;;;;;;;20.12;54.40;98722.47;5428925;26;20227;-26
2024/04/13 03:01:04;;;;;;;2.00;1.90;;;;;;;20.08;55.03;98725.66;5425981;26;20302;-27
2024/04/13 03:03:31;;;;;;;1.90;1.80;;;;;;;19.98;54.80;98712.41;5428542;26;20644;-26
2024/04/13 03:06:02;;;;;;;2.23;1.80;;;;;;;20.05;54.38;98723.81;5426305;26;20239;-27
2024/04/13 03:08:28;;;;;;;5.20;2.20;;;;;;;20.06;55.16;98725.56;5439541;26;20281;-27
2024/04/13 03:10:55;;;;;;;1.90;1.80;;;;;;;20.07;54.61;98722.22;5425424;26;20327;-29
2024/04/13 03:13:22;;;;;;;2.23;2.03;;;;;;;20.09;54.44;98719.75;5431469;26;20789;-26
2024/04/13 03:15:59;;;;;;;1.83;1.73;;;;;;;20.09;54.95;98728.28;5425116;26;20487;-26
2024/04/13 03:18:26;;;;;;;2.10;2.00;;;;;;;20.09;54.67;98717.19;5439105;26;20556;-33
2024/04/13 03:20:53;;;;;;;2.00;1.90;;;;;;;20.08;54.33;98726.53;5427394;26;20237;-26
2024/04/13 03:23:20;;;;;;;2.30;2.10;;;;;;;20.08;54.43;98728.22;5419832;26;20237;-28
2024/04/13 03:25:46;;;;;;;2.20;2.00;;;;;;;20.10;54.78;98736.84;5426974;26;20233;-30
2024/04/13 03:28:13;;;;;;;2.37;2.17;;;;;;;20.11;54.26;98736.91;5430218;26;20234;-26
2024/04/13 03:30:40;;;;;;;2.03;1.83;;;;;;;20.10;54.93;98730.03;5423268;26;20648;-26
2024/04/13 03:33:06;;;;;;;2.30;2.10;;;;;;;20.11;54.51;98721.59;5433583;26;20736;-27
2024/04/13 03:35:36;;;;;;;2.60;2.40;;;;;;;20.10;54.28;98727.47;5429159;26;20245;-27
2024/04/13 03:38:04;;;;;;;2.20;2.00;;;;;;;20.10;54.36;98722.38;5428121;26;20326;-26
2024/04/13 03:40:31;;;;;;;2.23;2.03;;;;;;;20.11;54.93;98726.72;5430500;26;20277;-28
2024/04/13 03:42:57;;;;;;;2.50;2.30;;;;;;;20.11;54.46;98721.59;5432229;26;20688;-25
2024/04/13 03:45:24;;;;;;;2.20;2.00;;;;;;;20.13;54.30;98719.16;5417170;26;20234;-26
2024/04/13 03:47:50;;;;;;;2.40;2.20;;;;;;;20.07;54.96;98714.56;5431238;26;20238;-36
2024/04/13 03:50:18;;;;;;;2.10;2.00;;;;;;;20.04;54.62;98716.94;5427518;26;20279;-27
2024/04/13 03:52:44;;;;;;;2.37;1.90;;;;;;;20.02;54.76;98705.81;5435949;26;20242;-26
2024/04/13 03:55:11;;;;;;;2.20;2.00;;;;;;;20.03;54.44;98712.66;5430195;26;20234;-27
2024/04/13 03:57:38;;;;;;;1.90;1.80;;;;;;;19.96;54.90;98708.03;5426371;26;20775;-26
2024/04/13 04:00:08;;;;;;;1.90;1.80;;;;;;;20.06;55.02;98722.13;5433088;26;20887;-29
2024/04/13 04:02:35;;;;;;;2.33;2.17;;;;;;;20.06;54.97;98724.69;5429306;26;20223;-27
2024/04/13 04:05:02;;;;;;;1.80;1.70;;;;;;;20.07;54.70;98719.66;5422279;26;20315;-27
2024/04/13 04:07:29;;;;;;;1.90;1.80;;;;;;;20.07;54.38;98722.22;5427600;26;20348;-26
2024/04/13 04:09:56;;;;;;;2.13;1.93;;;;;;;20.08;55.02;98721.44;5421346;26;20268;-28
2024/04/13 04:12:23;;;;;;;2.17;2.07;;;;;;;20.08;54.82;98726.53;5417001;26;20230;-26
2024/04/13 04:14:49;;;;;;;2.00;1.80;;;;;;;20.09;54.56;98722.28;5432484;26;20756;-26
2024/04/13 04:17:17;;;;;;;1.90;1.80;;;;;;;20.09;54.97;98724.84;5424167;26;20231;-30
2024/04/13 04:19:44;;;;;;;2.13;2.00;;;;;;;20.09;55.07;98725.75;5421307;26;20286;-27
2024/04/13 04:22:10;;;;;;;3.43;2.40;;;;;;;20.09;54.79;98727.41;5430830;26;20230;-26
2024/04/13 04:24:38;;;;;;;2.90;1.90;;;;;;;20.10;54.56;98730.03;5429341;26;20234;-26
2024/04/13 04:27:05;;;;;;;2.20;2.00;;;;;;;20.09;54.23;98722.28;5432058;26;20226;-28
2024/04/13 04:29:32;;;;;;;2.17;2.07;;;;;;;20.06;54.89;98728.13;5432066;26;20250;-27
2024/04/13 04:32:00;;;;;;;2.00;1.90;;;;;;;20.04;55.04;98711.84;5422545;26;20269;-27
2024/04/13 04:34:27;;;;;;;2.20;2.07;;;;;;;20.04;54.54;98721.19;5431612;26;20670;-26
2024/04/13 04:36:54;;;;;;;1.87;1.77;;;;;;;20.03;54.98;98715.19;5425406;26;20230;-26
2024/04/13 04:39:21;;;;;;;1.90;1.80;;;;;;;20.03;54.57;98710.09;5436575;26;20280;-26
2024/04/13 04:41:48;;;;;;;2.47;2.27;;;;;;;20.04;55.13;98708.44;5441688;26;20231;-27
2024/04/13 04:44:14;;;;;;;1.90;1.80;;;;;;;20.06;54.97;98702.59;5431183;26;20722;-26
2024/04/13 04:46:41;;;;;;;2.23;2.13;;;;;;;20.06;54.43;98715.38;5429912;26;20267;-28
2024/04/13 04:49:12;;;;;;;2.03;1.93;;;;;;;20.07;54.13;98718.81;5434632;26;20353;-27
2024/04/13 04:51:40;;;;;;;1.97;1.87;;;;;;;20.06;54.79;98717.03;5429050;26;20254;-27
2024/04/13 04:54:10;;;;;;;2.20;2.00;;;;;;;20.06;54.71;98715.38;5439327;26;20283;-27
2024/04/13 04:56:36;;;;;;;2.20;2.03;;;;;;;20.07;54.98;98717.13;5454015;26;20263;-27
2024/04/13 04:59:03;;;;;;;2.30;2.10;;;;;;;20.08;55.06;98723.09;5437602;26;20284;-26
2024/04/13 05:01:30;;;;;;;2.07;1.97;;;;;;;20.08;54.56;98720.56;5435327;26;20275;-27
2024/04/13 05:03:57;;;;;;;2.10;2.00;;;;;;;20.07;54.38;98719.66;5426040;26;20311;-26
2024/04/13 05:06:23;;;;;;;2.30;2.10;;;;;;;20.10;54.60;98718.97;5436355;26;20570;-26
2024/04/13 05:08:50;;;;;;;3.27;1.97;;;;;;;20.08;54.94;98728.22;5426144;26;20239;-33
2024/04/13 05:11:17;;;;;;;2.33;2.13;;;;;;;20.04;54.74;98729.72;5446205;26;20260;-28
2024/04/13 05:13:44;;;;;;;2.20;2.10;;;;;;;20.04;54.50;98726.31;5439852;26;20276;-26
2024/04/13 05:16:10;;;;;;;2.03;1.93;;;;;;;19.99;54.86;98718.41;5439306;26;20256;-27
2024/04/13 05:18:37;;;;;;;2.00;1.90;;;;;;;20.01;54.60;98721.03;5426475;26;20280;-25
2024/04/13 05:21:04;;;;;;;2.00;1.90;;;;;;;20.04;54.92;98716.09;5436197;26;20231;-26
2024/04/13 05:23:31;;;;;;;1.97;1.87;;;;;;;20.03;54.52;98717.75;5444701;26;20243;-26
2024/04/13 05:25:58;;;;;;;2.13;1.90;;;;;;;20.05;54.48;98717.84;5431562;26;20261;-27
2024/04/13 05:28:26;;;;;;;2.20;2.00;;;;;;;20.07;54.65;98727.31;5432564;26;20274;-26
2024/04/13 05:30:56;;;;;;;2.10;2.00;;;;;;;20.05;55.08;98717.84;5428128;26;20268;-28
2024/04/13 05:33:24;;;;;;;1.93;1.83;;;;;;;20.07;54.64;98729.00;5430823;26;20242;-27
2024/04/13 05:35:51;;;;;;;2.40;2.20;;;;;;;20.06;54.96;98720.47;5434949;26;20238;-28
2024/04/13 05:38:18;;;;;;;2.33;2.13;;;;;;;20.07;54.99;98718.81;5427741;26;20740;-31
2024/04/13 05:40:44;;;;;;;2.23;2.03;;;;;;;20.07;54.35;98722.22;5436162;26;20236;-26
2024/04/13 05:43:11;;;;;;;2.10;2.00;;;;;;;20.07;54.47;98718.81;5428811;26;20836;-26
2024/04/13 05:45:38;;;;;;;1.93;1.83;;;;;;;20.06;54.71;98717.91;5431728;26;20294;-27
2024/04/13 05:48:06;;;;;;;2.00;1.90;;;;;;;20.06;54.46;98722.13;5435370;26;20241;-27
2024/04/13 05:50:33;;;;;;;1.83;1.73;;;;;;;20.02;54.53;98719.41;5430555;26;20302;-26
2024/04/13 05:53:00;;;;;;;2.13;1.97;;;;;;;20.02;54.41;98716.88;5440198;26;20276;-35
2024/04/13 05:55:27;;;;;;;2.10;2.00;;;;;;;20.02;55.11;98723.66;5429050;26;20243;-27
2024/04/13 05:57:54;;;;;;;2.00;1.90;;;;;;;20.02;55.05;98727.88;5432703;26;20273;-27
2024/04/13 06:00:21;;;;;;;2.07;1.97;;;;;;;20.02;54.59;98727.06;5427474;26;20231;-28
2024/04/13 06:02:51;;;;;;;2.10;1.90;;;;;;;20.04;54.78;98722.06;5433670;26;20234;-27
2024/04/13 06:05:18;;;;;;;2.13;2.03;;;;;;;20.05;54.58;98728.94;5426108;26;20332;-30
2024/04/13 06:07:45;;;;;;;2.20;2.10;;;;;;;20.06;55.13;98732.34;5430715;26;20786;-29
2024/04/13 06:10:12;;;;;;;2.03;1.93;;;;;;;20.05;55.04;98730.59;5425443;26;20264;-27
2024/04/13 06:12:38;;;;;;;2.40;2.20;;;;;;;20.06;54.45;98738.34;5433563;26;20269;-26
2024/04/13 06:15:05;;;;;;;2.10;2.00;;;;;;;20.05;54.94;98731.47;5422765;26;20230;-27
2024/04/13 06:17:32;;;;;;;2.27;2.07;;;;;;;20.07;54.56;98741.78;5418827;26;20230;-26
2024/04/13 06:19:59;;;;;;;2.00;1.90;;;;;;;20.06;54.75;98748.53;5431938;26;20239;-25
2024/04/13 06:22:26;;;;;;;2.10;2.00;;;;;;;20.06;54.30;98740.00;5429067;26;20246;-26
2024/04/13 06:24:52;;;;;;;2.00;1.90;;;;;;;20.05;54.38;98738.25;5422748;26;20269;-26
2024/04/13 06:27:19;;;;;;;2.00;1.90;;;;;;;20.02;54.50;98732.97;5432094;26;20277;-25
2024/04/13 06:29:48;;;;;;;1.90;1.80;;;;;;;20.01;54.50;98742.31;5430111;26;20230;-35
2024/04/13 06:32:15;;;;;;;1.97;1.87;;;;;;;20.02;54.33;98732.97;5423397;26;20284;-27
2024/04/13 06:34:42;;;;;;;2.10;2.00;;;;;;;20.00;55.05;98732.91;5429319;26;20348;-30
2024/04/13 06:37:08;;;;;;;1.80;1.70;;;;;;;20.01;54.89;98729.53;5440328;26;20234;-29
2024/04/13 06:39:35;;;;;;;2.10;2.00;;;;;;;20.04;54.60;98727.16;5428990;26;20230;-26
2024/04/13 06:42:02;;;;;;;2.47;2.27;;;;;;;20.04;54.43;98732.25;5424658;26;20238;-27
2024/04/13 06:44:29;;;;;;;2.13;1.90;;;;;;;20.05;54.38;98736.59;5438904;26;20229;-27
2024/04/13 06:46:55;;;;;;;2.20;2.00;;;;;;;20.04;54.96;98727.16;5427087;26;20238;-28
2024/04/13 06:49:22;;;;;;;2.20;2.00;;;;;;;20.04;54.98;98732.25;5424681;26;20229;-26
2024/04/13 06:51:49;;;;;;;2.20;2.10;;;;;;;20.05;54.40;98733.16;5440931;26;20272;-27
2024/04/13 06:54:15;;;;;;;2.27;2.07;;;;;;;20.06;55.00;98732.34;5428861;26;20245;-27
2024/04/13 06:56:42;;;;;;;2.20;2.10;;;;;;;20.05;54.45;98731.47;5428042;26;20273;-26
2024/04/13 06:59:09;;;;;;;2.40;2.20;;;;;;;20.04;54.57;98732.25;5421486;26;20584;-26
2024/04/13 07:01:35;;;;;;;1.90;1.80;;;;;;;20.05;54.39;98741.69;5429119;26;20238;-27
2024/04/13 07:04:02;;;;;;;2.07;1.97;;;;;;;20.04;54.40;98745.03;5427087;26;20294;-26
2024/04/13 07:06:36;;;;;;;2.10;2.00;;;;;;;20.02;54.59;98755.16;5433357;26;20250;-27
2024/04/13 07:09:03;;;;;;;2.20;2.10;;;;;;;20.02;54.48;98750.84;5419770;26;20608;-26
2024/04/13 07:11:30;;;;;;;1.90;1.80;;;;;;;20.01;54.50;98749.09;5428924;26;20226;-26
2024/04/13 07:13:57;;;;;;;2.23;2.03;;;;;;;20.01;54.44;98741.44;5424126;26;20269;-29
2024/04/13 07:16:24;;;;;;;2.20;2.10;;;;;;;20.02;54.57;98747.50;5439206;26;20233;-28
2024/04/13 07:18:51;;;;;;;2.20;2.10;;;;;;;20.04;54.90;98747.56;5425291;26;20231;-26
2024/04/13 07:21:18;;;;;;;2.60;2.40;;;;;;;20.03;54.32;98738.16;5432203;26;20327;-27
2024/04/13 07:23:45;;;;;;;2.40;2.20;;;;;;;19.98;54.96;98724.28;5430367;26;20588;-27
2024/04/13 07:26:12;;;;;;;2.33;2.13;;;;;;;20.04;54.23;98745.03;5420799;26;20230;-26
2024/04/13 07:28:38;;;;;;;2.20;2.10;;;;;;;20.05;54.72;98749.34;5431766;26;20580;-27
2024/04/13 07:31:05;;;;;;;2.40;2.20;;;;;;;20.06;54.65;98740.00;5431794;26;20268;-27
2024/04/13 07:33:32;;;;;;;1.87;1.77;;;;;;;20.04;54.89;98747.56;5443314;26;20618;-25
2024/04/13 07:35:59;;;;;;;2.13;2.03;;;;;;;20.06;54.37;98745.09;5427448;26;20772;-30
2024/04/13 07:38:26;;;;;;;1.90;1.80;;;;;;;20.05;55.00;98736.59;5443538;26;20274;-27
2024/04/13 07:40:53;;;;;;;1.93;1.83;;;;;;;20.05;54.22;98740.81;5423163;26;20230;-28
2024/04/13 07:43:20;;;;;;;2.10;2.00;;;;;;;20.02;54.47;98747.50;5432896;26;20346;-26
2024/04/13 07:45:49;;;;;;;2.03;1.90;;;;;;;20.01;54.70;98742.31;5433604;26;20243;-28
2024/04/13 07:48:16;;;;;;;2.10;2.00;;;;;;;20.01;54.97;98744.00;5419492;26;20269;-26
2024/04/13 07:50:43;;;;;;;2.17;2.00;;;;;;;20.01;54.66;98736.34;5430533;26;20246;-25
2024/04/13 07:53:10;;;;;;;2.00;1.90;;;;;;;20.02;54.63;98741.53;5426964;26;20767;-30
2024/04/13 07:55:37;;;;;;;2.20;2.00;;;;;;;20.03;55.09;98745.81;5429004;26;20231;-27
2024/04/13 07:58:04;;;;;;;2.00;1.90;;;;;;;20.03;54.75;98748.38;5423223;26;20810;-27
2024/04/13 08:00:30;;;;;;;2.10;2.00;;;;;;;20.04;54.92;98749.28;5429169;26;20234;-27
2024/04/13 08:02:57;;;;;;;1.93;1.83;;;;;;;20.04;54.90;98745.03;5424285;26;20239;-28
2024/04/13 08:05:24;;;;;;;2.17;2.07;;;;;;;20.06;54.87;98747.66;5429757;26;20246;-28
2024/04/13 08:07:51;;;;;;;2.27;2.17;;;;;;;20.06;54.43;98740.88;5434687;26;20261;-25
2024/04/13 08:10:19;;;;;;;2.20;1.97;;;;;;;20.05;54.42;98739.13;5444611;26;20230;-34
2024/04/13 08:12:46;;;;;;;2.10;2.00;;;;;;;20.04;54.36;98732.25;5432614;26;20317;-28
2024/04/13 08:15:13;;;;;;;2.30;2.00;;;;;;;20.06;54.93;98737.44;5428489;26;20233;-26
2024/04/13 08:17:39;;;;;;;2.17;1.97;;;;;;;20.04;54.54;98739.06;5431543;26;20243;-32
2024/04/13 08:20:09;;;;;;;1.97;1.87;;;;;;;20.02;54.94;98753.41;5420535;26;20302;-28
2024/04/13 08:22:36;;;;;;;1.90;1.80;;;;;;;20.02;55.00;98743.19;5435563;26;20620;-31
2024/04/13 08:25:03;;;;;;;1.80;1.70;;;;;;;20.01;54.34;98744.84;5426857;26;20579;-26
2024/04/13 08:27:31;;;;;;;1.80;1.70;;;;;;;20.00;54.70;98738.00;5439005;26;20226;-26
2024/04/13 08:29:59;;;;;;;2.20;2.00;;;;;;;20.02;55.03;98751.72;5433053;26;20721;-27
2024/04/13 08:32:25;;;;;;;2.00;1.90;;;;;;;20.04;54.67;98739.06;5430668;26;20326;-28
2024/04/13 08:34:52;;;;;;;2.17;1.97;;;;;;;20.04;54.71;98742.47;5423729;26;20267;-26
2024/04/13 08:37:20;;;;;;;1.90;1.80;;;;;;;20.04;55.11;98747.56;5451634;26;20229;-29
2024/04/13 08:39:47;;;;;;;2.10;2.00;;;;;;;20.06;54.36;98737.44;5433247;26;20246;-35
2024/04/13 08:42:14;;;;;;;2.07;1.97;;;;;;;20.06;54.27;98734.88;5434568;26;20270;-28
2024/04/13 08:44:42;;;;;;;2.20;2.00;;;;;;;20.05;54.39;98728.94;5430994;26;20231;-27
2024/04/13 08:47:08;;;;;;;1.90;1.80;;;;;;;20.04;54.80;98726.31;5446396;26;20226;-26
2024/04/13 08:49:36;;;;;;;2.00;1.80;;;;;;;20.05;55.01;98728.94;5421351;26;20775;-29
2024/04/13 08:52:08;;;;;;;2.03;1.93;;;;;;;20.06;54.49;98720.47;5429150;26;20270;-25
2024/04/13 08:54:34;;;;;;;1.90;1.80;;;;;;;20.04;54.77;98718.66;5432765;26;20273;-26
2024/04/13 08:57:02;;;;;;;2.00;1.90;;;;;;;20.01;54.59;98711.69;5455774;26;20242;-26
2024/04/13 08:59:29;;;;;;;2.00;1.90;;;;;;;20.01;54.58;98713.38;5421328;26;20266;-26
2024/04/13 09:01:56;;;;;;;2.07;1.97;;;;;;;20.02;54.42;98712.56;5417793;26;20791;-26
2024/04/13 09:04:23;;;;;;;1.80;1.70;;;;;;;20.02;54.43;98715.13;5419149;26;20238;-25
2024/04/13 09:06:50;;;;;;;2.10;1.80;;;;;;;19.99;54.64;98706.50;5444786;26;20272;-29
2024/04/13 09:09:17;;;;;;;2.03;1.93;;;;;;;20.05;54.51;98715.28;5397281;26;20305;-27
2024/04/13 09:11:43;;;;;;;1.97;1.87;;;;;;;20.05;55.07;98715.28;5400578;26;20246;-27
2024/04/13 09:14:12;;;;;;;2.00;1.90;;;;;;;20.02;55.02;98706.66;5419314;26;20235;-27
2024/04/13 09:16:39;;;;;;;1.93;1.83;;;;;;;20.04;55.02;98708.44;5435096;26;20271;-28
2024/04/13 09:19:05;;;;;;;1.87;1.77;;;;;;;20.04;54.59;98711.84;5435892;26;20229;-26
2024/04/13 09:21:34;;;;;;;1.93;1.83;;;;;;;20.05;54.34;98711.06;5434054;26;20243;-25
2024/04/13 09:24:02;;;;;;;1.90;1.80;;;;;;;20.06;55.04;98704.28;5435874;26;20230;-31
2024/04/13 09:26:28;;;;;;;2.10;1.90;;;;;;;20.06;55.08;98701.72;5433485;26;20271;-26
2024/04/13 09:28:55;;;;;;;1.70;1.60;;;;;;;20.04;54.55;98699.09;5425407;26;20223;-29
2024/04/13 09:31:22;;;;;;;1.90;1.80;;;;;;;20.02;54.51;98698.16;5433801;26;20234;-29
2024/04/13 09:33:50;;;;;;;1.90;1.80;;;;;;;20.02;54.51;98692.16;5428571;26;20605;-27
2024/04/13 09:36:21;;;;;;;1.97;1.87;;;;;;;20.01;55.14;98688.72;5431477;26;20627;-27
2024/04/13 09:38:48;;;;;;;1.90;1.80;;;;;;;20.01;54.52;98690.41;5434006;26;20261;-38
2024/04/13 09:41:16;;;;;;;1.97;1.87;;;;;;;20.02;54.48;98684.50;5431713;26;20233;-25
2024/04/13 09:43:47;;;;;;;2.10;2.00;;;;;;;20.03;54.91;98676.91;5432641;26;20281;-26
2024/04/13 09:46:13;;;;;;;1.83;1.73;;;;;;;20.04;54.43;98667.59;5427634;26;20248;-25
2024/04/13 09:48:40;;;;;;;2.00;1.90;;;;;;;20.04;54.41;98675.25;5440821;26;20231;-32
2024/04/13 09:51:07;;;;;;;1.60;1.50;;;;;;;20.02;54.77;98664.97;5434231;26;20665;-27
2024/04/13 09:53:33;;;;;;;1.70;1.60;;;;;;;20.03;54.50;98659.06;5430471;26;20235;-25
2024/04/13 09:56:00;;;;;;;1.67;1.57;;;;;;;20.04;54.62;98655.69;5446018;26;20277;-31
2024/04/13 09:58:27;;;;;;;2.00;1.90;;;;;;;20.05;54.99;98666.78;5413914;26;20798;-36
2024/04/13 10:00:54;;;;;;;1.87;1.77;;;;;;;20.02;54.57;98652.22;5402493;26;20262;-24
2024/04/13 10:03:21;;;;;;;1.73;1.63;;;;;;;20.05;55.06;98649.81;5420167;26;20242;-28
2024/04/13 10:05:48;;;;;;;1.90;1.80;;;;;;;20.05;54.40;98643.84;5431049;26;20339;-27
2024/04/13 10:08:14;;;;;;;2.10;2.00;;;;;;;20.03;54.52;98646.31;5418693;26;20642;-27
2024/04/13 10:10:45;;;;;;;2.00;1.90;;;;;;;19.99;54.81;98640.16;5428151;26;20576;-27
2024/04/13 10:13:15;;;;;;;1.80;1.70;;;;;;;20.02;54.80;98641.13;5435194;26;20387;-27
2024/04/13 10:15:42;;;;;;;2.00;1.80;;;;;;;20.02;55.02;98641.13;5452570;26;20297;-28
2024/04/13 10:18:09;;;;;;;1.90;1.80;;;;;;;20.00;54.58;98635.94;5441143;26;20519;-27
2024/04/13 10:20:36;;;;;;;1.70;1.60;;;;;;;20.02;54.62;98627.56;5450829;26;20241;-27
2024/04/13 10:23:07;;;;;;;1.70;1.60;;;;;;;20.04;54.92;98630.19;5432129;26;20764;-26
2024/04/13 10:25:34;;;;;;;1.77;1.67;;;;;;;20.05;54.82;98629.41;5436911;26;20239;-31
2024/04/13 10:28:05;;;;;;;1.77;1.67;;;;;;;20.04;54.41;98624.22;5443156;26;20269;-27
2024/04/13 10:30:46;;;;;;;1.80;1.70;;;;;;;20.05;54.85;98621.75;5428856;26;20631;-26
2024/04/13 10:33:25;;;;;;;1.83;1.73;;;;;;;20.05;54.49;98615.75;5433275;26;20276;-26
2024/04/13 10:35:56;;;;;;;2.10;2.00;;;;;;;20.05;54.98;98614.09;5430549;26;20233;-26
2024/04/13 10:38:27;;;;;;;2.00;1.90;;;;;;;20.05;54.27;98606.44;5422406;26;20273;-30
2024/04/13 10:40:54;;;;;;;1.80;1.70;;;;;;;20.05;54.94;98603.00;5428475;26;20226;-25
2024/04/13 10:43:22;;;;;;;2.00;1.90;;;;;;;20.02;54.56;98593.53;5437887;26;20784;-26
2024/04/13 10:45:50;;;;;;;4.10;1.60;;;;;;;20.01;54.78;98591.75;5423618;26;20231;-26
2024/04/13 10:48:21;;;;;;;1.83;1.73;;;;;;;20.01;54.35;98588.34;5449158;26;20272;-28
2024/04/13 10:50:48;;;;;;;1.83;1.73;;;;;;;20.00;54.60;98582.34;5420712;26;20265;-26
2024/04/13 10:53:15;;;;;;;1.70;1.60;;;;;;;20.01;54.97;98578.13;5429189;26;20688;-27
2024/04/13 10:55:42;;;;;;;1.70;1.60;;;;;;;20.02;54.45;98574.78;5425032;26;20265;-27
2024/04/13 10:58:08;;;;;;;1.90;1.80;;;;;;;20.02;54.52;98573.97;5434878;26;20787;-26
2024/04/13 11:00:35;;;;;;;1.80;1.70;;;;;;;20.03;54.66;98569.75;5419798;26;20703;-26
2024/04/13 11:03:02;;;;;;;1.67;1.57;;;;;;;20.04;54.47;98570.63;5433116;26;20245;-28
2024/04/13 11:05:29;;;;;;;1.97;1.87;;;;;;;20.02;54.74;98570.56;5421045;26;20231;-27
2024/04/13 11:07:56;;;;;;;1.90;1.80;;;;;;;20.03;54.90;98564.66;5436561;26;20235;-26
2024/04/13 11:10:23;;;;;;;1.80;1.70;;;;;;;20.05;54.76;98570.72;5436113;26;20268;-26
2024/04/13 11:12:49;;;;;;;1.87;1.77;;;;;;;20.05;54.28;98563.06;5430254;26;20242;-31
2024/04/13 11:15:17;;;;;;;1.90;1.80;;;;;;;20.06;54.96;98563.91;5438291;26;20284;-26
2024/04/13 11:17:43;;;;;;;1.83;1.73;;;;;;;20.04;54.41;98562.97;5433669;26;20247;-26
2024/04/13 11:20:10;;;;;;;1.83;1.73;;;;;;;20.01;54.52;98553.47;5442479;26;20229;-26
2024/04/13 11:22:37;;;;;;;1.80;1.70;;;;;;;20.01;54.87;98550.06;5439496;26;20237;-24
2024/04/13 11:25:04;;;;;;;1.80;1.70;;;;;;;20.01;54.43;98540.72;5408980;26;20256;-27
2024/04/13 11:27:31;;;;;;;1.93;1.83;;;;;;;20.00;54.97;98538.97;5420533;26;20289;-26
2024/04/13 11:29:58;;;;;;;1.80;1.70;;;;;;;20.02;54.87;98541.59;5431329;26;20329;-26
2024/04/13 11:32:25;;;;;;;1.60;1.50;;;;;;;20.01;54.94;98530.50;5435041;26;20319;-28
2024/04/13 11:34:54;;;;;;;2.17;1.97;;;;;;;20.04;54.72;98530.66;5429982;26;20233;-25